Lake Sullivan, Indiana
Current Conditions -  °F | °C
As of 12:35 AM on Monday 20 Oct 2014 (Local Time) from KRSV Reporting Station
Overcast Overcast  
Wind Chill: 45°   Ceiling: 12000
Heat Index: 47°   Visibility: 10mi
Dew Point: 45°   Wind: 5mph
Humidity: 92%   Direction: 200°SSW
Pressure: 30.06"   Gusts: NA
Location:  39.1044°N, 87.4347°W
Report Text: KRSV 200435Z AUTO 20004KT 10SM OVC120 08/07 A3006 RMK AO2 T00820070
Loading
Personal Weather Stations






























Interactive Weather Map
Tropical Storm Tracking
New forecast layout! Learn more

10-Day Weather Forecast

Advertisements
Track Severe Weather on mobile